createdAt,value
2018-07-07T00:00:56.197Z,15.61
2018-07-07T00:04:00.087Z,15.36
2018-07-07T00:07:03.109Z,15.26
2018-07-07T00:10:07.942Z,15.20
2018-07-07T00:13:11.087Z,15.17
2018-07-07T00:16:14.190Z,15.12
2018-07-07T00:19:19.438Z,15.07
2018-07-07T00:22:22.369Z,15.03
2018-07-07T00:25:25.316Z,14.99
2018-07-07T00:28:29.576Z,14.93
2018-07-07T00:31:33.955Z,14.84
2018-07-07T00:34:38.037Z,14.73
2018-07-07T00:37:41.985Z,14.69
2018-07-07T00:40:46.069Z,14.62
2018-07-07T00:43:50.371Z,14.59
2018-07-07T00:46:53.383Z,14.59
2018-07-07T00:49:56.385Z,14.60
2018-07-07T00:53:01.424Z,14.55
2018-07-07T00:56:04.527Z,14.55
2018-07-07T00:59:09.554Z,14.51
2018-07-07T01:02:22.474Z,14.50
2018-07-07T01:05:34.001Z,14.46
2018-07-07T01:08:38.098Z,14.38
2018-07-07T01:11:42.238Z,14.33
2018-07-07T01:14:45.670Z,14.26
2018-07-07T01:17:49.709Z,14.22
2018-07-07T01:20:53.723Z,14.20
2018-07-07T01:23:56.857Z,14.17
2018-07-07T01:26:59.853Z,14.14
2018-07-07T01:30:03.191Z,14.10
2018-07-07T01:33:06.213Z,14.04
2018-07-07T01:36:09.187Z,13.97
2018-07-07T01:39:13.225Z,13.86
2018-07-07T01:42:17.420Z,13.68
2018-07-07T01:45:21.517Z,13.60
2018-07-07T01:48:24.535Z,13.59
2018-07-07T01:51:28.548Z,13.67
2018-07-07T01:54:32.571Z,13.81
2018-07-07T01:57:36.901Z,14.09
2018-07-07T02:00:40.245Z,14.35
2018-07-07T02:03:44.290Z,14.54
2018-07-07T02:06:48.297Z,14.69
2018-07-07T02:09:53.349Z,14.87
2018-07-07T02:12:56.305Z,15.08
2018-07-07T02:15:59.230Z,15.25
2018-07-07T02:19:02.317Z,15.39
2018-07-07T02:22:05.336Z,15.48
2018-07-07T02:25:09.365Z,15.56
2018-07-07T02:28:12.406Z,15.63
2018-07-07T02:31:15.431Z,15.74
2018-07-07T02:34:19.462Z,15.86
2018-07-07T02:37:24.439Z,15.95
2018-07-07T02:40:29.503Z,16.00
2018-07-07T02:43:32.486Z,16.05
2018-07-07T02:46:36.527Z,16.12
2018-07-07T02:49:41.545Z,16.01
2018-07-07T02:52:45.535Z,15.52
2018-07-07T02:55:48.655Z,15.13
2018-07-07T02:58:52.629Z,15.12
2018-07-07T03:01:56.636Z,15.12
2018-07-07T03:05:00.682Z,15.17
2018-07-07T03:08:04.726Z,15.17
2018-07-07T03:11:08.808Z,15.06
2018-07-07T03:14:12.766Z,15.00
2018-07-07T03:17:15.726Z,14.89
2018-07-07T03:20:18.774Z,14.87
2018-07-07T03:23:21.759Z,14.88
2018-07-07T03:26:25.851Z,14.88
2018-07-07T03:29:34.277Z,14.86
2018-07-07T03:32:39.548Z,14.87
2018-07-07T03:35:43.515Z,15.00
2018-07-07T03:38:46.461Z,15.14
2018-07-07T03:41:53.759Z,15.16
2018-07-07T03:44:56.794Z,15.15
2018-07-07T03:48:00.838Z,15.12
2018-07-07T03:51:04.830Z,15.09
2018-07-07T03:54:09.903Z,15.01
2018-07-07T03:57:12.965Z,15.06
2018-07-07T04:00:17.114Z,15.16
2018-07-07T04:03:20.199Z,15.22
2018-07-07T04:06:24.157Z,15.23
2018-07-07T04:09:27.195Z,15.31
2018-07-07T04:12:30.272Z,15.51
2018-07-07T04:15:34.367Z,15.57
2018-07-07T04:18:37.369Z,15.50
2018-07-07T04:21:40.334Z,15.59
2018-07-07T04:24:44.410Z,15.60
2018-07-07T04:27:47.420Z,15.81
2018-07-07T04:30:51.641Z,15.97
2018-07-07T04:33:54.679Z,16.08
2018-07-07T04:36:57.709Z,16.20
2018-07-07T04:40:01.725Z,16.29
2018-07-07T04:43:09.601Z,16.21
2018-07-07T04:46:14.625Z,16.33
2018-07-07T04:49:17.747Z,16.50
2018-07-07T04:52:20.767Z,16.73
2018-07-07T04:55:23.730Z,16.80
2018-07-07T04:58:26.797Z,16.93
2018-07-07T05:01:29.802Z,16.95
2018-07-07T05:04:32.916Z,17.22
2018-07-07T05:07:37.920Z,17.83
2018-07-07T05:10:41.979Z,18.36
2018-07-07T05:13:46.980Z,19.68
2018-07-07T05:16:52.025Z,20.73
2018-07-07T05:19:55.114Z,19.75
2018-07-07T05:22:58.102Z,19.27
2018-07-07T05:26:01.174Z,19.43
2018-07-07T05:29:04.150Z,19.70
2018-07-07T05:32:07.183Z,19.01
2018-07-07T05:35:10.062Z,18.53
2018-07-07T05:38:15.291Z,18.29
2018-07-07T05:41:19.284Z,17.94
2018-07-07T05:44:22.264Z,18.21
2018-07-07T05:47:30.245Z,18.88
2018-07-07T05:50:34.267Z,19.38
2018-07-07T05:53:38.308Z,20.53
2018-07-07T05:56:42.305Z,21.40
2018-07-07T05:59:46.302Z,21.33
2018-07-07T06:02:50.382Z,21.05
2018-07-07T06:05:54.330Z,21.14
2018-07-07T06:08:57.473Z,21.36
2018-07-07T06:12:00.546Z,22.85
2018-07-07T06:15:09.437Z,25.19
2018-07-07T06:18:12.490Z,26.79
2018-07-07T06:21:15.869Z,25.72
2018-07-07T06:24:19.943Z,25.65
2018-07-07T06:27:22.908Z,26.94
2018-07-07T06:30:27.094Z,26.36
2018-07-07T06:33:31.079Z,26.46
2018-07-07T06:36:35.092Z,24.88
2018-07-07T06:39:38.040Z,24.03
2018-07-07T06:42:42.129Z,22.98
2018-07-07T06:45:46.128Z,22.78
2018-07-07T06:48:49.221Z,24.17
2018-07-07T06:51:53.167Z,27.21
2018-07-07T06:55:00.398Z,27.82
2018-07-07T06:58:04.522Z,27.12
2018-07-07T07:01:07.529Z,27.13
2018-07-07T07:04:10.603Z,26.71
2018-07-07T07:07:14.743Z,25.35
2018-07-07T07:10:17.785Z,24.61
2018-07-07T07:13:20.759Z,25.83
2018-07-07T07:16:24.766Z,27.55
2018-07-07T07:19:30.925Z,27.17
2018-07-07T07:22:35.914Z,27.44
2018-07-07T07:25:39.959Z,26.36
2018-07-07T07:28:42.957Z,24.93
2018-07-07T07:31:47.941Z,25.92
2018-07-07T07:34:50.991Z,28.34
2018-07-07T07:37:55.073Z,28.95
2018-07-07T07:40:59.030Z,28.89
2018-07-07T07:44:02.102Z,29.13
2018-07-07T07:47:07.110Z,29.49
2018-07-07T07:50:10.107Z,29.41
2018-07-07T07:53:13.063Z,29.05
2018-07-07T07:56:17.143Z,28.32
2018-07-07T07:59:21.220Z,28.58
2018-07-07T08:02:24.321Z,29.82
2018-07-07T08:05:28.297Z,29.37
2018-07-07T08:08:33.333Z,28.47
2018-07-07T08:11:37.367Z,29.71
2018-07-07T08:14:41.381Z,28.44
2018-07-07T08:17:44.384Z,28.20
2018-07-07T08:20:48.339Z,27.59
2018-07-07T08:23:54.698Z,27.82
2018-07-07T08:26:59.753Z,28.39
2018-07-07T08:30:02.839Z,28.07
2018-07-07T08:33:05.805Z,27.19
2018-07-07T08:36:09.861Z,25.79
2018-07-07T08:39:12.788Z,25.18
2018-07-07T08:42:16.794Z,26.11
2018-07-07T08:45:19.950Z,25.07
2018-07-07T08:48:24.021Z,26.20
2018-07-07T08:51:26.998Z,24.43
2018-07-07T08:54:30.005Z,24.86
2018-07-07T08:57:34.050Z,24.50
2018-07-07T09:00:36.970Z,24.82
2018-07-07T09:03:41.959Z,25.41
2018-07-07T09:06:44.877Z,25.93
2018-07-07T09:09:49.899Z,25.15
2018-07-07T09:12:54.941Z,25.95
2018-07-07T09:15:57.969Z,26.48
2018-07-07T09:19:01.010Z,26.38
2018-07-07T09:22:05.951Z,26.18
2018-07-07T09:25:08.954Z,26.37
2018-07-07T09:28:13.949Z,25.63
2018-07-07T09:31:19.989Z,25.49
2018-07-07T09:34:24.086Z,26.21
2018-07-07T09:37:27.582Z,26.46
2018-07-07T09:40:31.587Z,26.24
2018-07-07T09:43:34.644Z,25.92
2018-07-07T09:46:38.629Z,25.55
2018-07-07T09:49:42.653Z,26.66
2018-07-07T09:52:45.611Z,26.94
2018-07-07T09:55:49.742Z,27.02
2018-07-07T09:58:53.699Z,27.91
2018-07-07T10:01:57.977Z,27.65
2018-07-07T10:05:01.913Z,26.45
2018-07-07T10:08:05.985Z,26.41
2018-07-07T10:11:08.905Z,26.99
2018-07-07T10:14:12.914Z,27.41
2018-07-07T10:17:15.947Z,28.27
2018-07-07T10:20:18.936Z,27.72
2018-07-07T10:23:25.662Z,26.40
2018-07-07T10:26:28.859Z,25.74
2018-07-07T10:29:31.855Z,24.88
2018-07-07T10:32:34.819Z,25.17
2018-07-07T10:35:37.800Z,25.39
2018-07-07T10:38:40.870Z,26.56
2018-07-07T10:41:43.962Z,27.59
2018-07-07T10:44:47.935Z,26.98
2018-07-07T10:47:51.978Z,26.51
2018-07-07T10:50:55.091Z,26.71
2018-07-07T10:53:59.054Z,26.38
2018-07-07T10:57:02.014Z,26.56
2018-07-07T11:00:05.669Z,27.58
2018-07-07T11:03:08.779Z,26.21
2018-07-07T11:06:11.928Z,26.57
2018-07-07T11:09:14.913Z,26.50
2018-07-07T11:12:18.981Z,26.90
2018-07-07T11:15:21.948Z,27.09
2018-07-07T11:18:24.918Z,27.53
2018-07-07T11:21:28.216Z,27.80
2018-07-07T11:24:31.198Z,27.24
2018-07-07T11:27:38.688Z,26.88
2018-07-07T11:30:42.697Z,26.76
2018-07-07T11:33:45.740Z,26.15
2018-07-07T11:36:49.877Z,25.73
2018-07-07T11:39:52.881Z,25.98
2018-07-07T11:42:55.855Z,25.96
2018-07-07T11:45:58.892Z,26.77
2018-07-07T11:49:03.980Z,27.09
2018-07-07T11:52:07.062Z,26.18
2018-07-07T11:55:10.249Z,27.02
2018-07-07T11:58:14.301Z,27.66
2018-07-07T12:01:19.366Z,27.66
2018-07-07T12:04:23.436Z,27.79
2018-07-07T12:07:27.397Z,27.02
2018-07-07T12:10:30.369Z,26.62
2018-07-07T12:13:33.408Z,27.32
2018-07-07T12:16:36.351Z,27.45
2018-07-07T12:19:39.358Z,27.35
2018-07-07T12:22:42.344Z,27.62
2018-07-07T12:25:46.341Z,28.18
2018-07-07T12:28:49.395Z,27.75
2018-07-07T12:31:52.469Z,27.86
2018-07-07T12:34:55.471Z,27.29
2018-07-07T12:37:58.465Z,27.08
2018-07-07T12:41:01.558Z,27.27
2018-07-07T12:44:04.561Z,27.60
2018-07-07T12:47:07.623Z,28.32
2018-07-07T12:50:10.649Z,28.08
2018-07-07T12:53:13.736Z,27.13
2018-07-07T12:56:16.836Z,26.71
2018-07-07T12:59:19.904Z,26.98
2018-07-07T13:02:22.949Z,27.04
2018-07-07T13:05:25.982Z,27.53
2018-07-07T13:08:29.083Z,27.28
2018-07-07T13:11:32.177Z,27.32
2018-07-07T13:14:35.333Z,27.47
2018-07-07T13:17:38.545Z,27.30
2018-07-07T13:20:41.654Z,27.15
2018-07-07T13:23:44.793Z,27.48
2018-07-07T13:26:48.897Z,28.28
2018-07-07T13:29:51.926Z,27.55
2018-07-07T13:32:55.051Z,27.76
2018-07-07T13:35:58.029Z,28.01
2018-07-07T13:39:01.002Z,27.86
2018-07-07T13:42:04.050Z,28.62
2018-07-07T13:45:07.054Z,29.52
2018-07-07T13:48:10.188Z,28.93
2018-07-07T13:51:13.218Z,28.15
2018-07-07T13:54:16.251Z,27.58
2018-07-07T13:57:19.326Z,27.54
2018-07-07T14:00:22.489Z,27.34
2018-07-07T14:03:25.456Z,27.60
2018-07-07T14:06:28.409Z,27.00
2018-07-07T14:09:31.528Z,27.00
2018-07-07T14:12:34.441Z,26.93
2018-07-07T14:15:37.414Z,27.92
2018-07-07T14:18:40.386Z,28.74
2018-07-07T14:21:43.394Z,29.36
2018-07-07T14:24:46.384Z,29.29
2018-07-07T14:27:49.420Z,29.31
2018-07-07T14:30:52.473Z,29.31
2018-07-07T14:33:55.525Z,29.16
2018-07-07T14:36:58.527Z,29.36
2018-07-07T14:40:01.642Z,28.37
2018-07-07T14:43:04.924Z,28.87
2018-07-07T14:46:08.054Z,29.76
2018-07-07T14:49:11.110Z,28.96
2018-07-07T14:52:14.038Z,29.13
2018-07-07T14:55:18.217Z,28.37
2018-07-07T14:58:21.232Z,28.58
2018-07-07T15:01:24.343Z,28.40
2018-07-07T15:04:27.430Z,27.85
2018-07-07T15:07:30.669Z,27.85
2018-07-07T15:10:33.687Z,27.78
2018-07-07T15:13:36.668Z,28.16
2018-07-07T15:16:39.731Z,29.37
2018-07-07T15:19:42.800Z,29.23
2018-07-07T15:22:46.035Z,29.51
2018-07-07T15:25:48.985Z,29.64
2018-07-07T15:28:52.061Z,29.83
2018-07-07T15:31:55.089Z,30.25
2018-07-07T15:34:58.173Z,29.32
2018-07-07T15:38:01.249Z,29.36
2018-07-07T15:41:04.353Z,29.27
2018-07-07T15:44:07.378Z,29.32
2018-07-07T15:47:10.373Z,29.25
2018-07-07T15:50:13.400Z,28.98
2018-07-07T15:53:16.420Z,29.20
2018-07-07T15:56:19.553Z,29.50
2018-07-07T15:59:22.587Z,29.38
2018-07-07T16:02:25.647Z,29.41
2018-07-07T16:05:28.667Z,28.73
2018-07-07T16:08:31.829Z,28.78
2018-07-07T16:11:34.993Z,29.50
2018-07-07T16:14:38.157Z,28.78
2018-07-07T16:17:41.177Z,29.47
2018-07-07T16:20:46.268Z,29.47
2018-07-07T16:23:49.275Z,29.20
2018-07-07T16:26:52.402Z,29.38
2018-07-07T16:29:55.434Z,29.52
2018-07-07T16:32:58.550Z,29.16
2018-07-07T16:36:01.589Z,28.29
2018-07-07T16:39:05.157Z,28.63
2018-07-07T16:42:08.133Z,28.24
2018-07-07T16:45:11.125Z,28.60
2018-07-07T16:48:14.235Z,28.83
2018-07-07T16:51:17.282Z,28.66
2018-07-07T16:54:21.170Z,28.88
2018-07-07T16:57:24.383Z,29.43
2018-07-07T17:00:27.472Z,29.60
2018-07-07T17:03:30.553Z,29.70
2018-07-07T17:06:33.636Z,29.57
2018-07-07T17:09:36.869Z,29.77
2018-07-07T17:12:41.198Z,30.05
2018-07-07T17:15:44.327Z,29.19
2018-07-07T17:18:47.858Z,29.24
2018-07-07T17:21:51.142Z,28.64
2018-07-07T17:24:54.850Z,29.36
2018-07-07T17:27:58.050Z,28.58
2018-07-07T17:31:02.106Z,28.27
2018-07-07T17:34:05.237Z,27.64
2018-07-07T17:37:08.270Z,27.59
2018-07-07T17:40:11.653Z,28.10
2018-07-07T17:43:14.787Z,27.12
2018-07-07T17:46:18.009Z,27.45
2018-07-07T17:49:22.194Z,27.62
2018-07-07T17:52:25.154Z,27.20
2018-07-07T17:55:28.327Z,27.58
2018-07-07T17:58:32.388Z,27.28
2018-07-07T18:01:35.767Z,26.97
2018-07-07T18:04:38.906Z,26.69
2018-07-07T18:07:42.958Z,27.05
2018-07-07T18:10:46.062Z,26.70
2018-07-07T18:13:49.027Z,26.85
2018-07-07T18:16:52.110Z,26.95
2018-07-07T18:19:55.167Z,26.75
2018-07-07T18:22:58.204Z,26.26
2018-07-07T18:26:01.312Z,26.09
2018-07-07T18:29:04.430Z,25.93
2018-07-07T18:32:07.401Z,25.56
2018-07-07T18:35:10.428Z,25.26
2018-07-07T18:38:13.493Z,24.99
2018-07-07T18:41:16.529Z,24.87
2018-07-07T18:44:19.547Z,24.92
2018-07-07T18:47:22.489Z,25.02
2018-07-07T18:50:25.457Z,24.98
2018-07-07T18:53:28.504Z,24.62
2018-07-07T18:56:31.597Z,24.32
2018-07-07T18:59:34.557Z,24.03
2018-07-07T19:02:37.545Z,23.82
2018-07-07T19:05:40.562Z,23.73
2018-07-07T19:08:43.591Z,23.71
2018-07-07T19:11:46.745Z,23.77
2018-07-07T19:14:49.807Z,23.59
2018-07-07T19:17:53.776Z,23.35
2018-07-07T19:21:02.246Z,23.25
2018-07-07T19:24:11.759Z,23.02
2018-07-07T19:27:14.756Z,22.72
2018-07-07T19:30:17.688Z,22.57
2018-07-07T19:33:26.229Z,22.42
2018-07-07T19:36:34.829Z,22.23
2018-07-07T19:39:37.861Z,22.09
2018-07-07T19:42:40.909Z,21.93
2018-07-07T19:45:43.939Z,21.85
2018-07-07T19:48:47.906Z,21.60
2018-07-07T19:51:50.967Z,21.35
2018-07-07T19:54:54.000Z,21.32
2018-07-07T19:57:56.957Z,21.26
2018-07-07T20:01:00.049Z,21.13
2018-07-07T20:04:03.021Z,20.97
2018-07-07T20:07:07.045Z,20.75
2018-07-07T20:10:11.046Z,20.49
2018-07-07T20:13:14.177Z,20.39
2018-07-07T20:16:20.311Z,20.46
2018-07-07T20:19:24.133Z,20.10
2018-07-07T20:22:27.181Z,19.75
2018-07-07T20:25:30.232Z,19.43
2018-07-07T20:28:39.082Z,19.10
2018-07-07T20:31:48.461Z,18.80
2018-07-07T20:34:51.577Z,18.60
2018-07-07T20:37:54.677Z,18.44
2018-07-07T20:40:57.697Z,18.34
2018-07-07T20:44:00.740Z,18.02
2018-07-07T20:47:03.933Z,17.80
2018-07-07T20:50:07.019Z,17.64
2018-07-07T20:53:10.128Z,17.60
2018-07-07T20:56:13.208Z,17.57
2018-07-07T20:59:16.324Z,17.55
2018-07-07T21:02:19.354Z,17.48
2018-07-07T21:05:23.422Z,17.43
2018-07-07T21:08:26.473Z,17.36
2018-07-07T21:11:30.242Z,17.25
2018-07-07T21:14:33.203Z,17.13
2018-07-07T21:17:36.246Z,17.01
2018-07-07T21:20:39.239Z,16.85
2018-07-07T21:23:43.387Z,16.76
2018-07-07T21:26:46.393Z,16.62
2018-07-07T21:29:49.470Z,16.51
2018-07-07T21:32:52.507Z,16.50
2018-07-07T21:35:55.470Z,16.48
2018-07-07T21:38:58.497Z,16.44
2018-07-07T21:42:01.494Z,16.41
2018-07-07T21:45:05.553Z,16.34
2018-07-07T21:48:08.534Z,16.25
2018-07-07T21:51:11.456Z,16.07
2018-07-07T21:54:15.548Z,15.95
2018-07-07T21:57:24.207Z,15.88
2018-07-07T22:00:32.742Z,15.85
2018-07-07T22:03:41.354Z,15.85
2018-07-07T22:06:52.016Z,15.80
2018-07-07T22:09:56.065Z,15.73
2018-07-07T22:12:59.125Z,15.61
2018-07-07T22:16:03.258Z,15.33
2018-07-07T22:19:07.260Z,15.09
2018-07-07T22:22:10.839Z,14.94
2018-07-07T22:25:14.883Z,14.80
2018-07-07T22:28:20.131Z,14.74
2018-07-07T22:31:24.210Z,14.82
2018-07-07T22:34:31.365Z,15.03
2018-07-07T22:37:34.325Z,15.13
2018-07-07T22:40:37.322Z,15.18
2018-07-07T22:43:40.401Z,15.15
2018-07-07T22:46:43.472Z,15.08
2018-07-07T22:49:47.587Z,15.04
2018-07-07T22:52:50.638Z,15.10
2018-07-07T22:55:53.568Z,15.16
2018-07-07T22:58:56.621Z,15.15
2018-07-07T23:01:59.611Z,15.03
2018-07-07T23:05:03.286Z,14.91
2018-07-07T23:08:06.418Z,14.82
2018-07-07T23:11:09.410Z,14.75
2018-07-07T23:14:13.494Z,14.69
2018-07-07T23:17:16.456Z,14.65
2018-07-07T23:20:19.866Z,14.72
2018-07-07T23:23:22.950Z,14.78
2018-07-07T23:26:26.332Z,14.88
2018-07-07T23:29:29.700Z,14.77
2018-07-07T23:32:32.770Z,14.62
2018-07-07T23:35:35.913Z,14.50
2018-07-07T23:38:39.376Z,14.35
2018-07-07T23:41:42.445Z,14.26
2018-07-07T23:44:45.579Z,14.25
2018-07-07T23:47:48.517Z,14.22
2018-07-07T23:50:51.627Z,14.21
2018-07-07T23:53:55.773Z,14.17
2018-07-07T23:56:58.823Z,14.16
